Fort Stewart, GA

5:27 AM EDT on September 03, 2015 (GMT -0400)
FTST HQ | | Change Station
CLOSE
Current Station
Personal Weather Station
Location: Hinesville, GA
Elevation: 85 ft
Nearby Weather Stations

Elev 85 ft 31.86 °N, 81.62 °W | Updated 14 minutes ago

Overcast
Overcast
73.9 °F
Feels Like 71 °F
N
0.0
Wind Variable Wind from NNW

Today
High -- | Low -- °F
--% Chance of Precip.
Yesterday
High -- | Low -- °F
Precip. -- in
7:02 AM 7:48 PM
Waning Gibbous, 72% visible
Pressure 29.93 in
Visibility 10.0 miles
Clouds Few 1000 ft
Mostly Cloudy 6000 ft
Overcast 8000 ft
Heat Index 71 °F
Dew Point 72 °F
Humidity 93%
Rainfall 0.00 in
Snow Depth Not available.
UV 0 out of 12
Pollen 5.30 out of 12
Air Quality Not available.
Flu Activity Not available.
METAR KLHW 030858Z AUTO 00000KT 10SM FEW010 BKN060 OVC080 24/23 A2992 RMK AO2 SLP135 60000 T02360226 57010
Pressure 29.93 in
Visibility 10.0 miles
Clouds Few 1000 ft
Mostly Cloudy 6000 ft
Overcast 8000 ft
Heat Index 71 °F
Dew Point 72 °F
Humidity 93%
Rainfall 0.00 in
Snow Depth Not available.
UV 0 out of 12
Pollen 5.30 out of 12
Air Quality Not available.
Flu Activity Not available.
METAR KLHW 030858Z AUTO 00000KT 10SM FEW010 BKN060 OVC080 24/23 A2992 RMK AO2 SLP135 60000 T02360226 57010

10-Day Weather Forecast

×

Almanac

Astronomy

Sep. 03, 2015 Rise Set
Actual Time
Civil Twilight
Nautical Twilight
Astronomical Twilight
Moon
Length of Visible Light
Length of Day
Tomorrow will be .
, % of the Moon is Illuminated

Today's Extremes

State Highs State Lows

Community

WunderPhotos

Upload Photos

1,851,922 photos uploaded!

WunderBlogs® & News

Nearby

Air Quality

  Air Quality AQ Index Pollutant
Not available.

Snow Depth

Station Depth Elevation

Earthquake Activity

City Distance Mag. Time & Date
Minimum magnitude displayed is 2.5.

Coastal Water Temperatures

Place Temperature

Stations

Nearby Weather Stations

Station Location Temp. Windchill Dew Point Humidity Wind Precip. Elev Updated Type